Time;durP1;ratioP1;P1;durP2;ratioP2;P2;SDS_P1;SDS_P2;PMS_P1;PMS_P2;Temp;Humidity;BMP_temperature;BMP_pressure;BME280_temperature;BME280_humidity;BME280_pressure;Samples;Min_cycle;Max_cycle;Signal;HPM_P1;HPM_P2
2022/03/15 00:00:09;;;;;;;;;;;;;;;30.41;15.58;102733.88;5003388;28;742;-37
2022/03/15 00:02:34;;;;;;;;;;;;;;;30.16;16.03;102733.63;5007598;28;860;-38
2022/03/15 00:04:59;;;;;;;;;;;;;;;30.73;15.82;102738.88;4999144;28;782;-37
2022/03/15 00:07:26;;;;;;;;;;;;;;;30.89;15.71;102733.56;5013088;28;1944;-37
2022/03/15 00:09:51;;;;;;;;;;;;;;;30.28;16.19;102737.00;5017523;28;896;-34
2022/03/15 00:12:17;;;;;;;;;;;;;;;29.91;16.44;102733.41;5009837;28;829;-36
2022/03/15 00:14:44;;;;;;;;;;;;;;;29.69;16.68;102727.44;4999074;28;786;-40
2022/03/15 00:17:09;;;;;;;;;;;;;;;29.59;16.91;102732.06;5012066;28;833;-35
2022/03/15 00:19:34;;;;;;;;;;;;;;;29.45;17.06;102733.38;4999091;28;790;-39
2022/03/15 00:22:02;;;;;;;;;;;;;;;29.26;17.31;102726.22;4998638;28;833;-37
2022/03/15 00:24:28;;;;;;;;;;;;;;;29.54;17.05;102727.06;5004808;28;912;-38
2022/03/15 00:26:54;;;;;;;;;;;;;;;30.07;16.76;102734.56;4998583;28;1898;-37
2022/03/15 00:29:22;;;;;;;;;;;;;;;29.95;16.95;102725.81;4998367;28;854;-35
2022/03/15 00:31:47;;;;;;;;;;;;;;;29.97;16.78;102722.94;5007959;28;1017;-35
2022/03/15 00:34:12;;;;;;;;;;;;;;;30.10;16.66;102728.84;4998803;28;1026;-37
2022/03/15 00:36:38;;;;;;;;;;;;;;;30.34;16.28;102721.94;5007263;28;802;-37
2022/03/15 00:39:06;;;;;;;;;;;;;;;30.63;16.29;102718.06;4999005;28;889;-35
2022/03/15 00:41:31;;;;;;;;;;;;;;;31.01;15.98;102725.13;4998180;28;845;-37
2022/03/15 00:43:56;;;;;;;;;;;;;;;31.17;15.53;102718.91;4998735;28;907;-38
2022/03/15 00:46:22;;;;;;;;;;;;;;;30.73;15.72;102708.97;5002234;28;884;-37
2022/03/15 00:48:47;;;;;;;;;;;;;;;30.53;16.07;102711.91;5016698;28;1910;-37
2022/03/15 00:51:12;;;;;;;;;;;;;;;30.71;16.25;102713.72;5000090;28;889;-38
2022/03/15 00:53:38;;;;;;;;;;;;;;;30.99;15.99;102714.44;4998130;28;968;-39
2022/03/15 00:56:04;;;;;;;;;;;;;;;30.53;16.13;102714.63;4997941;28;788;-37
2022/03/15 00:58:29;;;;;;;;;;;;;;;30.28;16.19;102707.13;4996845;28;897;-39
2022/03/15 01:00:55;;;;;;;;;;;;;;;30.02;16.63;102707.03;5000758;28;845;-37
2022/03/15 01:03:20;;;;;;;;;;;;;;;29.84;17.04;102701.63;5004572;28;864;-38
2022/03/15 01:05:45;;;;;;;;;;;;;;;29.61;17.07;102697.50;4998137;28;837;-35
2022/03/15 01:08:10;;;;;;;;;;;;;;;29.23;17.44;102692.09;4997783;28;1902;-38
2022/03/15 01:10:36;;;;;;;;;;;;;;;29.67;17.22;102696.88;4997968;28;846;-39
2022/03/15 01:13:01;;;;;;;;;;;;;;;30.20;16.71;102698.91;4997822;28;766;-37
2022/03/15 01:15:27;;;;;;;;;;;;;;;30.13;16.77;102693.22;5004629;28;894;-38
2022/03/15 01:17:52;;;;;;;;;;;;;;;30.17;16.60;102694.63;5004166;28;821;-38
2022/03/15 01:20:18;;;;;;;;;;;;;;;30.38;16.62;102693.47;4996901;28;809;-38
2022/03/15 01:22:43;;;;;;;;;;;;;;;30.63;16.22;102688.19;4997962;28;889;-35
2022/03/15 01:25:08;;;;;;;;;;;;;;;30.87;16.11;102686.69;4997310;28;838;-37
2022/03/15 01:27:34;;;;;;;;;;;;;;;30.53;16.19;102688.31;5006586;28;1929;-39
2022/03/15 01:30:00;;;;;;;;;;;;;;;30.07;16.67;102680.28;4997770;28;853;-39
2022/03/15 01:32:25;;;;;;;;;;;;;;;30.59;16.38;102675.97;5008905;28;845;-38
2022/03/15 01:34:50;;;;;;;;;;;;;;;31.13;15.74;102680.31;5016311;28;1041;-37
2022/03/15 01:37:15;;;;;;;;;;;;;;;30.57;15.91;102677.97;5016399;28;786;-38
2022/03/15 01:39:41;;;;;;;;;;;;;;;30.26;16.30;102675.75;5011217;28;971;-35
2022/03/15 01:42:06;;;;;;;;;;;;;;;29.96;16.68;102664.25;5012551;28;985;-35
2022/03/15 01:44:33;;;;;;;;;;;;;;;29.78;17.08;102667.84;5016315;28;837;-33
2022/03/15 01:46:59;;;;;;;;;;;;;;;29.64;17.11;102669.22;5011015;28;1965;-38
2022/03/15 01:49:24;;;;;;;;;;;;;;;29.43;17.50;102662.19;5016001;28;844;-37
2022/03/15 01:51:49;;;;;;;;;;;;;;;29.62;17.64;102665.81;5006690;28;883;-35
2022/03/15 01:54:15;;;;;;;;;;;;;;;30.24;16.90;102669.59;5005331;28;1190;-37
2022/03/15 01:56:43;;;;;;;;;;;;;;;30.77;16.61;102666.88;4997484;28;789;-38
2022/03/15 01:59:09;;;;;;;;;;;;;;;30.56;16.79;102665.44;4997176;28;834;-37
2022/03/15 02:01:35;;;;;;;;;;;;;;;30.66;16.77;102666.13;5005648;28;939;-35
2022/03/15 02:04:00;;;;;;;;;;;;;;;30.83;16.51;102660.00;5001238;28;849;-41
2022/03/15 02:06:25;;;;;;;;;;;;;;;31.00;16.48;102658.19;5009171;28;778;-37
2022/03/15 02:08:51;;;;;;;;;;;;;;;31.01;16.22;102668.88;4996606;28;1898;-39
2022/03/15 02:11:17;;;;;;;;;;;;;;;30.72;16.55;102661.94;4997220;28;816;-37
2022/03/15 02:13:42;;;;;;;;;;;;;;;30.47;16.76;102664.50;4997072;28;875;-37
2022/03/15 02:16:08;;;;;;;;;;;;;;;30.92;16.53;102659.88;4998890;28;833;-39
2022/03/15 02:18:33;;;;;;;;;;;;;;;31.04;16.22;102655.00;5008717;28;830;-38
2022/03/15 02:20:58;;;;;;;;;;;;;;;30.65;16.91;102655.44;4997485;28;897;-39
2022/03/15 02:23:24;;;;;;;;;;;;;;;30.38;17.45;102651.91;4996534;28;857;-39
2022/03/15 02:25:49;;;;;;;;;;;;;;;30.11;17.87;102651.84;5015829;28;817;-37
2022/03/15 02:28:14;;;;;;;;;;;;;;;29.88;18.08;102651.50;5015471;28;1956;-39
2022/03/15 02:30:40;;;;;;;;;;;;;;;29.72;18.15;102644.03;5012955;28;822;-40
2022/03/15 02:33:05;;;;;;;;;;;;;;;29.71;18.23;102648.63;5007741;28;948;-37
2022/03/15 02:35:30;;;;;;;;;;;;;;;30.26;17.34;102646.72;5001127;28;1019;-36
2022/03/15 02:37:56;;;;;;;;;;;;;;;29.82;17.22;102648.38;5000287;28;800;-39
2022/03/15 02:40:21;;;;;;;;;;;;;;;30.12;17.23;102647.25;5000850;28;781;-38
2022/03/15 02:42:46;;;;;;;;;;;;;;;30.17;16.77;102648.50;5001004;28;774;-38
2022/03/15 02:45:14;;;;;;;;;;;;;;;30.34;16.42;102650.50;5008342;28;849;-41
2022/03/15 02:47:40;;;;;;;;;;;;;;;30.64;15.98;102648.31;5006757;28;1911;-39
2022/03/15 02:50:05;;;;;;;;;;;;;;;30.77;15.55;102650.59;5001040;28;746;-35
2022/03/15 02:52:32;;;;;;;;;;;;;;;30.87;15.61;102648.63;5000021;28;877;-39
2022/03/15 02:54:58;;;;;;;;;;;;;;;31.13;15.68;102655.03;5000628;28;817;-39
2022/03/15 02:57:24;;;;;;;;;;;;;;;31.49;15.25;102656.69;5011969;28;846;-37
2022/03/15 02:59:50;;;;;;;;;;;;;;;30.93;15.49;102660.69;4999750;28;837;-38
2022/03/15 03:02:15;;;;;;;;;;;;;;;30.81;16.69;102662.88;5011848;28;875;-40
2022/03/15 03:04:41;;;;;;;;;;;;;;;31.11;15.91;102666.06;5000746;28;822;-36
2022/03/15 03:07:06;;;;;;;;;;;;;;;31.34;15.62;102665.47;4999574;28;1898;-40
2022/03/15 03:09:31;;;;;;;;;;;;;;;30.91;16.47;102660.88;5006238;28;805;-38
2022/03/15 03:11:57;;;;;;;;;;;;;;;30.46;17.87;102657.38;5000264;28;771;-40
2022/03/15 03:14:23;;;;;;;;;;;;;;;30.25;18.13;102664.03;4999677;28;881;-38
2022/03/15 03:16:49;;;;;;;;;;;;;;;30.09;18.10;102662.00;5009838;28;888;-38
2022/03/15 03:19:14;;;;;;;;;;;;;;;29.96;18.46;102661.56;5000016;28;805;-39
2022/03/15 03:21:40;;;;;;;;;;;;;;;29.91;18.43;102657.44;4999485;28;1213;-41
2022/03/15 03:24:06;;;;;;;;;;;;;;;29.52;18.32;102652.28;5006423;28;1436;-39
2022/03/15 03:26:36;;;;;;;;;;;;;;;30.16;17.83;102646.78;5018884;28;1057;-38
2022/03/15 03:29:01;;;;;;;;;;;;;;;30.94;16.90;102650.69;5018818;28;955;-41
2022/03/15 03:31:27;;;;;;;;;;;;;;;30.66;17.28;102655.28;5010097;28;770;-42
2022/03/15 03:33:52;;;;;;;;;;;;;;;30.54;17.30;102653.88;4999915;28;1203;-40
2022/03/15 03:36:17;;;;;;;;;;;;;;;30.75;17.22;102649.88;5006500;28;758;-42
2022/03/15 03:38:43;;;;;;;;;;;;;;;31.05;16.94;102650.41;4999354;28;849;-39
2022/03/15 03:41:08;;;;;;;;;;;;;;;31.27;16.62;102654.38;4999300;28;810;-40
2022/03/15 03:43:34;;;;;;;;;;;;;;;31.53;16.31;102649.91;4998943;28;802;-41
2022/03/15 03:45:59;;;;;;;;;;;;;;;31.37;16.33;102656.97;4999345;28;893;-39
2022/03/15 03:48:25;;;;;;;;;;;;;;;31.16;16.87;102652.81;5005386;28;1911;-40
2022/03/15 03:50:50;;;;;;;;;;;;;;;31.01;16.79;102654.47;4999504;28;782;-38
2022/03/15 03:53:16;;;;;;;;;;;;;;;31.57;16.14;102664.84;4999268;28;834;-39
2022/03/15 03:55:41;;;;;;;;;;;;;;;31.16;16.79;102660.13;4999330;28;794;-42
2022/03/15 03:58:07;;;;;;;;;;;;;;;30.87;17.20;102654.06;4999461;28;929;-39
2022/03/15 04:00:32;;;;;;;;;;;;;;;30.52;17.13;102653.16;5006830;28;860;-39
2022/03/15 04:02:58;;;;;;;;;;;;;;;30.24;17.38;102656.03;5009079;28;781;-39
2022/03/15 04:05:24;;;;;;;;;;;;;;;30.10;17.76;102660.13;4999057;28;905;-39
2022/03/15 04:07:50;;;;;;;;;;;;;;;29.37;16.99;102660.06;4998963;28;1957;-37
2022/03/15 04:10:16;;;;;;;;;;;;;;;28.58;16.63;102666.66;4998811;28;822;-37
2022/03/15 04:12:43;;;;;;;;;;;;;;;29.03;17.16;102666.97;5004344;28;802;-34
2022/03/15 04:15:08;;;;;;;;;;;;;;;28.90;16.02;102672.69;5003802;28;838;-37
2022/03/15 04:17:34;;;;;;;;;;;;;;;29.27;16.30;102668.28;5007081;28;1035;-36
2022/03/15 04:19:59;;;;;;;;;;;;;;;29.49;15.87;102667.00;4999256;28;766;-37
2022/03/15 04:22:24;;;;;;;;;;;;;;;29.63;15.88;102672.94;4998734;28;763;-39
2022/03/15 04:24:50;;;;;;;;;;;;;;;29.65;15.65;102660.94;4998515;28;809;-36
2022/03/15 04:27:16;;;;;;;;;;;;;;;29.75;15.56;102660.84;5005093;28;1898;-36
2022/03/15 04:29:41;;;;;;;;;;;;;;;29.82;15.57;102669.22;4998295;28;771;-37
2022/03/15 04:32:07;;;;;;;;;;;;;;;29.99;15.20;102672.09;5006556;28;857;-38
2022/03/15 04:34:32;;;;;;;;;;;;;;;30.09;15.19;102672.84;4998624;28;1010;-39
2022/03/15 04:36:58;;;;;;;;;;;;;;;30.22;14.93;102669.75;4998206;28;820;-38
2022/03/15 04:39:23;;;;;;;;;;;;;;;30.23;14.90;102667.91;5004394;28;974;-35
2022/03/15 04:41:49;;;;;;;;;;;;;;;30.27;14.81;102670.16;4999017;28;723;-41
2022/03/15 04:44:14;;;;;;;;;;;;;;;29.87;15.04;102669.63;4998505;28;762;-38
2022/03/15 04:46:39;;;;;;;;;;;;;;;28.64;16.22;102668.78;4999542;28;1898;-36
2022/03/15 04:49:05;;;;;;;;;;;;;;;28.54;16.39;102676.09;5001304;28;1394;-38
2022/03/15 04:51:30;;;;;;;;;;;;;;;27.71;14.53;102673.66;5006808;28;1079;-38
2022/03/15 04:53:55;;;;;;;;;;;;;;;25.87;14.83;102673.19;5001788;28;1048;-32
2022/03/15 04:56:21;;;;;;;;;;;;;;;24.02;13.82;102663.19;5004132;28;1259;-35
2022/03/15 04:58:47;;;;;;;;;;;;;;;22.59;14.74;102652.63;5004998;28;1256;-32
2022/03/15 05:01:12;;;;;;;;;;;;;;;21.01;15.41;102644.00;5001294;28;834;-31
2022/03/15 05:03:37;;;;;;;;;;;;;;;20.89;16.06;102645.56;5005766;28;1234;-30
2022/03/15 05:06:03;;;;;;;;;;;;;;;20.41;15.35;102644.84;5010631;28;1719;-34
2022/03/15 05:08:28;;;;;;;;;;;;;;;20.46;15.24;102649.03;4999548;28;1942;-32
2022/03/15 05:11:06;;;;;;;;;;;;;;;20.26;16.09;102646.59;5007127;28;1309;-32
2022/03/15 05:13:32;;;;;;;;;;;;;;;20.82;15.70;102655.78;5016671;28;805;-35
2022/03/15 05:15:57;;;;;;;;;;;;;;;20.78;15.52;102652.47;5011294;28;899;-30
2022/03/15 05:18:25;;;;;;;;;;;;;;;20.68;15.86;102646.81;5010811;28;1481;-30
2022/03/15 05:20:51;;;;;;;;;;;;;;;20.52;15.94;102648.69;4997704;28;820;-31
2022/03/15 05:23:16;;;;;;;;;;;;;;;19.95;16.78;102640.34;4997942;28;889;-31
2022/03/15 05:25:41;;;;;;;;;;;;;;;20.57;16.31;102646.56;4997642;28;857;-35
2022/03/15 05:28:08;;;;;;;;;;;;;;;19.96;16.33;102634.03;4996916;28;1898;-30
2022/03/15 05:30:33;;;;;;;;;;;;;;;19.67;16.52;102632.09;5008896;28;1312;-32
2022/03/15 05:32:58;;;;;;;;;;;;;;;19.77;17.53;102637.75;5006520;28;956;-32
2022/03/15 05:35:23;;;;;;;;;;;;;;;19.98;16.87;102639.28;5006760;28;1500;-29
2022/03/15 05:37:49;;;;;;;;;;;;;;;19.57;16.77;102636.19;5010297;28;1160;-32
2022/03/15 05:40:15;;;;;;;;;;;;;;;19.15;17.40;102642.00;5006470;28;961;-29
2022/03/15 05:42:40;;;;;;;;;;;;;;;19.31;17.33;102623.38;4997510;28;837;-30
2022/03/15 05:45:05;;;;;;;;;;;;;;;19.39;17.24;102627.41;5003014;28;799;-31
2022/03/15 05:47:31;;;;;;;;;;;;;;;20.85;16.89;102623.53;5009096;28;1914;-30
2022/03/15 05:49:56;;;;;;;;;;;;;;;22.79;15.23;102626.31;5007401;28;822;-35
2022/03/15 05:52:21;;;;;;;;;;;;;;;23.26;14.60;102535.25;5005012;28;825;-32
2022/03/15 05:54:47;;;;;;;;;;;;;;;24.69;13.71;102623.16;5000816;28;1229;-28
2022/03/15 05:57:12;;;;;;;;;;;;;;;24.84;13.57;102614.84;5006027;28;842;-28
2022/03/15 05:59:38;;;;;;;;;;;;;;;24.93;13.41;102618.69;4997435;28;833;-30
2022/03/15 06:02:03;;;;;;;;;;;;;;;25.12;13.21;102614.50;4997267;28;778;-31
2022/03/15 06:04:28;;;;;;;;;;;;;;;25.53;12.94;102617.50;5007161;28;1442;-30
2022/03/15 06:06:57;;;;;;;;;;;;;;;25.60;13.09;102607.94;4997297;28;1898;-31
2022/03/15 06:09:23;;;;;;;;;;;;;;;25.64;13.14;102608.56;5003155;28;853;-29
2022/03/15 06:11:49;;;;;;;;;;;;;;;26.03;13.14;102618.81;5009293;28;820;-30
2022/03/15 06:14:14;;;;;;;;;;;;;;;25.48;13.71;102607.09;5011836;28;1120;-30
2022/03/15 06:16:40;;;;;;;;;;;;;;;25.80;13.43;102609.00;4998950;28;1243;-28
2022/03/15 06:19:05;;;;;;;;;;;;;;;25.58;13.09;102611.72;5011287;28;1151;-29
2022/03/15 06:21:30;;;;;;;;;;;;;;;24.98;13.32;102616.47;5000524;28;1471;-32
2022/03/15 06:23:55;;;;;;;;;;;;;;;25.05;13.71;102623.09;5005961;28;1367;-30
2022/03/15 06:26:21;;;;;;;;;;;;;;;24.89;13.64;102617.19;5015856;28;770;-28
2022/03/15 06:28:46;;;;;;;;;;;;;;;25.14;13.59;102620.63;5015829;28;1902;-30
2022/03/15 06:31:14;;;;;;;;;;;;;;;24.88;13.75;102615.47;5008514;28;820;-32
2022/03/15 06:33:39;;;;;;;;;;;;;;;24.98;13.76;102611.09;5006477;28;1053;-29
2022/03/15 06:36:08;;;;;;;;;;;;;;;25.22;13.56;102609.22;5003027;28;801;-28
2022/03/15 06:38:33;;;;;;;;;;;;;;;25.40;13.59;102607.75;4996367;28;838;-33
2022/03/15 06:40:59;;;;;;;;;;;;;;;25.06;13.87;102605.94;5009742;28;783;-29
2022/03/15 06:43:24;;;;;;;;;;;;;;;25.02;13.82;102614.41;5015376;28;1441;-29
2022/03/15 06:45:50;;;;;;;;;;;;;;;25.23;13.31;102616.31;5010450;28;884;-27
2022/03/15 06:48:15;;;;;;;;;;;;;;;25.43;13.09;102612.88;5013331;28;1898;-29
2022/03/15 06:50:40;;;;;;;;;;;;;;;25.51;13.19;102614.91;5010087;28;1293;-28
2022/03/15 06:53:06;;;;;;;;;;;;;;;25.79;13.29;102618.03;5012869;28;1206;-30
2022/03/15 06:55:32;;;;;;;;;;;;;;;25.86;12.95;102623.78;5014816;28;1223;-33
2022/03/15 06:57:58;;;;;;;;;;;;;;;26.01;13.39;102613.53;5003816;28;830;-36
2022/03/15 07:00:23;;;;;;;;;;;;;;;26.62;13.52;102621.06;4999342;28;993;-32
2022/03/15 07:02:49;;;;;;;;;;;;;;;26.98;13.62;102621.50;5011861;28;821;-34
2022/03/15 07:05:14;;;;;;;;;;;;;;;27.22;13.82;102631.16;4996704;28;799;-33
2022/03/15 07:07:39;;;;;;;;;;;;;;;27.35;13.85;102621.94;4999052;28;1973;-35
2022/03/15 07:10:05;;;;;;;;;;;;;;;27.69;13.65;102623.44;4999324;28;1267;-33
2022/03/15 07:12:31;;;;;;;;;;;;;;;28.05;13.95;102630.97;5012014;28;789;-34
2022/03/15 07:14:56;;;;;;;;;;;;;;;28.08;13.81;102623.41;5012494;28;904;-34
2022/03/15 07:17:22;;;;;;;;;;;;;;;28.08;14.06;102622.56;5011536;28;1151;-34
2022/03/15 07:19:47;;;;;;;;;;;;;;;28.33;13.69;102625.69;5013586;28;1124;-33
2022/03/15 07:22:12;;;;;;;;;;;;;;;27.72;14.63;102623.16;5005532;28;883;-32
2022/03/15 07:24:38;;;;;;;;;;;;;;;27.60;15.59;102627.78;5005056;28;785;-29
2022/03/15 07:27:03;;;;;;;;;;;;;;;28.19;14.63;102618.84;4999775;28;1956;-31
2022/03/15 07:29:28;;;;;;;;;;;;;;;28.43;14.41;102615.69;5000156;28;777;-30
2022/03/15 07:31:54;;;;;;;;;;;;;;;28.57;14.35;102613.50;5012178;28;979;-31
2022/03/15 07:34:19;;;;;;;;;;;;;;;28.58;14.29;102613.38;5015999;28;1236;-30
2022/03/15 07:36:46;;;;;;;;;;;;;;;28.90;14.17;102613.94;5009893;28;1179;-31
2022/03/15 07:39:11;;;;;;;;;;;;;;;29.05;14.17;102608.06;4999159;28;814;-33
2022/03/15 07:41:40;;;;;;;;;;;;;;;29.26;14.20;102620.50;4999468;28;806;-34
2022/03/15 07:44:08;;;;;;;;;;;;;;;29.49;14.02;102620.91;4999367;28;854;-32
2022/03/15 07:46:34;;;;;;;;;;;;;;;29.77;13.81;102620.88;5012069;28;1203;-35
2022/03/15 07:48:59;;;;;;;;;;;;;;;29.39;14.10;102623.69;5014302;28;1988;-30
2022/03/15 07:51:25;;;;;;;;;;;;;;;29.71;13.95;102621.50;5012117;28;1158;-33
2022/03/15 07:53:50;;;;;;;;;;;;;;;28.70;14.67;102621.31;5015714;28;1314;-37
2022/03/15 07:56:17;;;;;;;;;;;;;;;27.71;15.74;102614.16;5017303;28;817;-34
2022/03/15 07:58:42;;;;;;;;;;;;;;;27.29;15.69;102611.69;5013206;28;1226;-32
2022/03/15 08:01:08;;;;;;;;;;;;;;;27.08;16.17;102602.66;5010835;28;969;-34
2022/03/15 08:03:33;;;;;;;;;;;;;;;27.01;16.07;102612.25;5005384;28;819;-30
2022/03/15 08:05:59;;;;;;;;;;;;;;;26.95;15.99;102608.28;4998989;28;831;-34
2022/03/15 08:08:24;;;;;;;;;;;;;;;26.87;16.21;102600.00;4998993;28;1910;-32
2022/03/15 08:10:49;;;;;;;;;;;;;;;26.86;16.19;102601.84;5007963;28;1005;-32
2022/03/15 08:13:15;;;;;;;;;;;;;;;26.86;16.40;102603.72;5005772;28;1128;-34
2022/03/15 08:15:40;;;;;;;;;;;;;;;26.68;16.38;102598.94;5003348;28;1129;-31
2022/03/15 08:18:06;;;;;;;;;;;;;;;26.65;17.39;102583.88;5002965;28;1036;-31
2022/03/15 08:20:32;;;;;;;;;;;;;;;26.71;16.62;102592.41;5013355;28;1242;-32
2022/03/15 08:22:58;;;;;;;;;;;;;;;26.62;16.74;102586.84;5003368;28;824;-30
2022/03/15 08:25:23;;;;;;;;;;;;;;;26.63;17.04;102584.97;4999838;28;861;-31
2022/03/15 08:27:48;;;;;;;;;;;;;;;26.84;17.15;102584.09;5003800;28;1902;-31
2022/03/15 08:30:14;;;;;;;;;;;;;;;26.95;16.87;102585.81;5003292;28;742;-30
2022/03/15 08:32:39;;;;;;;;;;;;;;;26.84;17.06;102575.97;5004798;28;1144;-32
2022/03/15 08:35:04;;;;;;;;;;;;;;;26.78;17.11;102577.38;5010546;28;1218;-32
2022/03/15 08:37:30;;;;;;;;;;;;;;;26.76;15.68;102577.50;5013417;28;1198;-33
2022/03/15 08:39:56;;;;;;;;;;;;;;;26.19;14.47;102574.34;5004974;28;950;-32
2022/03/15 08:42:21;;;;;;;;;;;;;;;25.94;14.10;102569.22;5012280;28;1168;-30
2022/03/15 08:44:46;;;;;;;;;;;;;;;25.94;14.47;102566.53;5010722;28;1266;-35
2022/03/15 08:47:12;;;;;;;;;;;;;;;25.66;14.51;102561.63;5015334;28;1973;-29
2022/03/15 08:49:38;;;;;;;;;;;;;;;25.50;14.63;102571.94;5012061;28;1715;-32
2022/03/15 08:52:03;;;;;;;;;;;;;;;25.59;14.28;102562.25;5010713;28;793;-30
2022/03/15 08:54:30;;;;;;;;;;;;;;;25.61;14.27;102555.72;5017345;28;842;-33
2022/03/15 08:56:56;;;;;;;;;;;;;;;25.60;14.51;102558.56;5015663;28;1277;-32
2022/03/15 08:59:21;;;;;;;;;;;;;;;25.55;14.20;102548.16;5010077;28;1292;-32
2022/03/15 09:01:48;;;;;;;;;;;;;;;25.57;14.18;102543.50;5012180;28;1071;-31
2022/03/15 09:04:13;;;;;;;;;;;;;;;25.58;14.08;102547.91;5014136;28;934;-30
2022/03/15 09:06:39;;;;;;;;;;;;;;;25.72;14.07;102551.31;5016587;28;1234;-29
2022/03/15 09:09:04;;;;;;;;;;;;;;;25.72;13.95;102541.41;5014416;28;1977;-30
2022/03/15 09:11:30;;;;;;;;;;;;;;;25.75;13.92;102534.88;5010768;28;1204;-30
2022/03/15 09:13:55;;;;;;;;;;;;;;;25.84;13.95;102536.78;5013308;28;1194;-34
2022/03/15 09:16:21;;;;;;;;;;;;;;;25.71;13.78;102536.97;4998972;28;765;-30
2022/03/15 09:18:46;;;;;;;;;;;;;;;25.66;13.90;102540.06;5007296;28;1203;-29
2022/03/15 09:21:12;;;;;;;;;;;;;;;25.95;13.51;102530.47;5010771;28;913;-34
2022/03/15 09:23:38;;;;;;;;;;;;;;;25.67;14.17;102533.66;5016921;28;879;-32
2022/03/15 09:26:03;;;;;;;;;;;;;;;25.56;13.88;102513.00;5016431;28;783;-30
2022/03/15 09:28:29;;;;;;;;;;;;;;;25.59;13.64;102508.34;5015723;28;1894;-33
2022/03/15 09:30:54;;;;;;;;;;;;;;;26.11;14.94;102508.44;5015464;28;895;-33
2022/03/15 09:33:20;;;;;;;;;;;;;;;26.13;14.86;102511.00;4997409;28;1189;-30
2022/03/15 09:35:45;;;;;;;;;;;;;;;26.13;14.55;102506.47;5012981;28;1373;-32
2022/03/15 09:38:10;;;;;;;;;;;;;;;25.96;15.78;102499.81;5009918;28;1041;-31
2022/03/15 09:40:35;;;;;;;;;;;;;;;26.14;15.47;102494.69;5011991;28;1267;-28
2022/03/15 09:43:01;;;;;;;;;;;;;;;26.14;15.65;102485.75;5014299;28;1042;-27
2022/03/15 09:45:33;;;;;;;;;;;;;;;26.11;15.90;102476.06;5004947;28;802;-28
2022/03/15 09:48:00;;;;;;;;;;;;;;;26.13;15.02;102484.03;4999421;28;1910;-33
2022/03/15 09:50:25;;;;;;;;;;;;;;;26.19;14.88;102472.72;5003371;28;922;-29
2022/03/15 09:52:52;;;;;;;;;;;;;;;26.14;15.61;102466.88;4996991;28;822;-32
2022/03/15 09:55:17;;;;;;;;;;;;;;;26.19;15.69;102466.47;5001678;28;825;-31
2022/03/15 09:57:43;;;;;;;;;;;;;;;26.15;16.53;102458.63;4997712;28;823;-28
2022/03/15 10:00:13;;;;;;;;;;;;;;;26.20;16.49;102460.06;5001438;28;850;-31
2022/03/15 10:02:41;;;;;;;;;;;;;;;26.24;16.35;102465.03;5014397;28;1199;-32
2022/03/15 10:05:06;;;;;;;;;;;;;;;26.32;16.39;102469.78;5015895;28;863;-31
2022/03/15 10:07:32;;;;;;;;;;;;;;;26.38;16.59;102463.88;5014143;28;1953;-32
2022/03/15 10:09:58;;;;;;;;;;;;;;;26.21;16.93;102461.78;5008313;28;1033;-33
2022/03/15 10:12:23;;;;;;;;;;;;;;;26.09;16.98;102461.03;5007442;28;1100;-32
2022/03/15 10:14:49;;;;;;;;;;;;;;;26.31;16.93;102457.28;5005390;28;1294;-30
2022/03/15 10:17:15;;;;;;;;;;;;;;;26.09;17.76;102448.38;5005346;28;987;-30
2022/03/15 10:19:50;;;;;;;;;;;;;;;25.72;17.93;102451.59;4996746;28;853;-32
2022/03/15 10:22:18;;;;;;;;;;;;;;;25.70;18.28;102448.16;5007668;28;897;-32
2022/03/15 10:24:44;;;;;;;;;;;;;;;26.01;18.02;102442.78;5016144;28;848;-29
2022/03/15 10:27:09;;;;;;;;;;;;;;;26.32;17.64;102441.94;5013926;28;1890;-31
2022/03/15 10:29:36;;;;;;;;;;;;;;;26.22;17.42;102437.38;5014606;28;806;-32
2022/03/15 10:32:02;;;;;;;;;;;;;;;26.23;17.18;102435.50;5013645;28;891;-29
2022/03/15 10:34:28;;;;;;;;;;;;;;;26.51;17.87;102435.78;5011104;28;1031;-33
2022/03/15 10:36:56;;;;;;;;;;;;;;;26.16;17.40;102435.19;5006993;28;1137;-30
2022/03/15 10:39:21;;;;;;;;;;;;;;;26.03;17.60;102430.91;5015693;28;988;-34
2022/03/15 10:41:52;;;;;;;;;;;;;;;25.94;18.20;102434.41;5015368;28;1493;-29
2022/03/15 10:44:17;;;;;;;;;;;;;;;25.65;18.28;102424.31;5015872;28;816;-34
2022/03/15 10:46:42;;;;;;;;;;;;;;;25.71;18.40;102414.84;5001857;28;1034;-30
2022/03/15 10:49:08;;;;;;;;;;;;;;;25.86;18.26;102418.06;5009035;28;1918;-30
2022/03/15 10:51:33;;;;;;;;;;;;;;;26.06;18.49;102424.38;5004588;28;1269;-28
2022/03/15 10:54:03;;;;;;;;;;;;;;;25.80;18.11;102417.59;5009368;28;1249;-30
2022/03/15 10:56:28;;;;;;;;;;;;;;;26.01;17.93;102411.31;5005003;28;1344;-30
2022/03/15 10:58:54;;;;;;;;;;;;;;;25.88;18.05;102414.22;5014196;28;826;-30
2022/03/15 11:01:19;;;;;;;;;;;;;;;25.66;18.00;102405.31;5017073;28;769;-29
2022/03/15 11:03:55;;;;;;;;;;;;;;;25.70;18.31;102403.22;5001901;28;1329;-33
2022/03/15 11:06:30;;;;;;;;;;;;;;;26.44;17.73;102404.97;5013007;28;1159;-32
2022/03/15 11:08:56;;;;;;;;;;;;;;;26.57;17.91;102402.88;5000299;28;1898;-30
2022/03/15 11:11:25;;;;;;;;;;;;;;;26.63;17.43;102402.28;5011103;28;1143;-27
2022/03/15 11:13:50;;;;;;;;;;;;;;;26.75;17.34;102392.22;5016494;28;794;-27
2022/03/15 11:16:16;;;;;;;;;;;;;;;26.81;17.33;102398.06;5005986;28;790;-28
2022/03/15 11:18:42;;;;;;;;;;;;;;;26.67;18.14;102393.91;4998406;28;813;-29
2022/03/15 11:21:07;;;;;;;;;;;;;;;26.71;17.89;102384.56;4998990;28;849;-30
2022/03/15 11:23:32;;;;;;;;;;;;;;;26.69;17.75;102381.13;5000130;28;834;-31
2022/03/15 11:26:00;;;;;;;;;;;;;;;26.65;17.92;102372.47;5004531;28;1079;-31
2022/03/15 11:28:29;;;;;;;;;;;;;;;26.73;18.31;102372.63;5000107;28;1906;-30
2022/03/15 11:30:54;;;;;;;;;;;;;;;26.73;17.31;102366.34;5007473;28;873;-29
2022/03/15 11:33:20;;;;;;;;;;;;;;;26.83;17.81;102359.13;4999208;28;1285;-29
2022/03/15 11:35:45;;;;;;;;;;;;;;;26.85;17.65;102362.53;5010525;28;1246;-30
2022/03/15 11:38:12;;;;;;;;;;;;;;;26.75;17.82;102357.13;5008281;28;1219;-32
2022/03/15 11:40:38;;;;;;;;;;;;;;;26.71;17.54;102358.41;5011690;28;1263;-33
2022/03/15 11:43:11;;;;;;;;;;;;;;;26.67;17.39;102357.00;4998975;28;880;-31
2022/03/15 11:45:38;;;;;;;;;;;;;;;25.96;18.25;102356.91;5002925;28;918;-31
2022/03/15 11:48:05;;;;;;;;;;;;;;;25.55;18.67;102348.75;5000848;28;1971;-27
2022/03/15 11:50:31;;;;;;;;;;;;;;;25.31;19.08;102342.66;5015513;28;1256;-29
2022/03/15 11:53:01;;;;;;;;;;;;;;;25.64;18.77;102347.16;5008334;28;1165;-28
2022/03/15 11:55:32;;;;;;;;;;;;;;;25.83;18.24;102343.69;5016135;28;817;-30
2022/03/15 11:58:03;;;;;;;;;;;;;;;25.63;18.77;102340.91;5012121;28;953;-30
2022/03/15 12:00:32;;;;;;;;;;;;;;;25.53;18.91;102339.94;5010400;28;766;-33
2022/03/15 12:03:01;;;;;;;;;;;;;;;26.01;18.46;102334.94;5002257;28;853;-32
2022/03/15 12:05:27;;;;;;;;;;;;;;;26.48;17.86;102331.69;5002262;28;873;-29
2022/03/15 12:08:11;;;;;;;;;;;;;;;26.13;17.96;102330.28;4997747;28;1910;-32
2022/03/15 12:10:38;;;;;;;;;;;;;;;25.69;18.31;102336.81;5006164;28;989;-32
2022/03/15 12:13:04;;;;;;;;;;;;;;;25.84;18.22;102329.19;5000122;28;833;-33
2022/03/15 12:15:36;;;;;;;;;;;;;;;25.52;17.69;102325.66;5000652;28;1116;-32
2022/03/15 12:18:23;;;;;;;;;;;;;;;25.00;18.54;102307.59;5004094;28;791;-29
2022/03/15 12:20:55;;;;;;;;;;;;;;;25.01;18.87;102300.34;5012580;28;838;-33
2022/03/15 12:23:26;;;;;;;;;;;;;;;24.98;19.02;102311.38;5018033;28;795;-30
2022/03/15 12:25:53;;;;;;;;;;;;;;;25.10;18.88;102315.75;5017385;28;860;-32
2022/03/15 12:28:23;;;;;;;;;;;;;;;25.16;18.55;102317.91;5015481;28;1898;-31
2022/03/15 12:30:53;;;;;;;;;;;;;;;25.16;18.71;102311.66;5008891;28;939;-29
2022/03/15 12:33:26;;;;;;;;;;;;;;;25.01;18.93;102300.34;4998358;28;754;-33
2022/03/15 12:35:57;;;;;;;;;;;;;;;25.15;18.91;102296.50;4998804;28;798;-32
2022/03/15 12:38:30;;;;;;;;;;;;;;;25.24;18.48;102292.16;4998536;28;794;-32
2022/03/15 12:40:55;;;;;;;;;;;;;;;25.06;18.57;102299.00;5000302;28;770;-30
2022/03/15 12:43:21;;;;;;;;;;;;;;;25.01;18.76;102290.44;5006169;28;834;-30
2022/03/15 12:45:47;;;;;;;;;;;;;;;24.75;19.06;102298.88;5002020;28;972;-32